createdAt,value
2023-05-19T00:01:13.700Z,8.70
2023-05-19T00:04:16.618Z,5.70
2023-05-19T00:07:20.456Z,4.70
2023-05-19T00:10:22.819Z,5.63
2023-05-19T00:13:25.055Z,5.32
2023-05-19T00:16:28.443Z,5.82
2023-05-19T00:19:32.408Z,5.80
2023-05-19T00:22:34.603Z,6.18
2023-05-19T00:25:36.881Z,10.07
2023-05-19T00:28:39.133Z,6.47
2023-05-19T00:31:41.176Z,5.40
2023-05-19T00:34:44.660Z,6.95
2023-05-19T00:37:46.774Z,5.85
2023-05-19T00:40:49.045Z,6.13
2023-05-19T00:43:51.266Z,6.55
2023-05-19T00:46:53.358Z,5.83
2023-05-19T00:49:55.406Z,5.03
2023-05-19T00:52:57.950Z,5.25
2023-05-19T00:56:00.873Z,6.88
2023-05-19T00:59:04.948Z,7.22
2023-05-19T01:02:07.749Z,5.80
2023-05-19T01:05:10.376Z,6.10
2023-05-19T01:08:12.450Z,6.55
2023-05-19T01:11:14.516Z,8.65
2023-05-19T01:14:17.379Z,7.45
2023-05-19T01:17:27.119Z,7.53
2023-05-19T01:20:38.963Z,6.47
2023-05-19T01:24:01.560Z,12.55
2023-05-19T01:27:06.635Z,8.68
2023-05-19T01:30:32.793Z,8.43
2023-05-19T01:33:35.986Z,7.00
2023-05-19T01:36:38.755Z,7.13
2023-05-19T01:39:44.322Z,10.15
2023-05-19T01:42:47.064Z,8.20
2023-05-19T01:45:49.211Z,6.25
2023-05-19T01:48:52.611Z,6.20
2023-05-19T01:51:55.156Z,8.13
2023-05-19T01:54:57.593Z,8.15
2023-05-19T01:58:09.968Z,5.90
2023-05-19T02:01:34.031Z,6.47
2023-05-19T02:04:47.975Z,7.53
2023-05-19T02:08:01.444Z,4.65
2023-05-19T02:11:12.187Z,6.65
2023-05-19T02:14:20.334Z,7.13
2023-05-19T02:17:24.724Z,7.00
2023-05-19T02:20:26.868Z,4.57
2023-05-19T02:23:28.965Z,6.55
2023-05-19T02:26:32.646Z,5.32
2023-05-19T02:29:34.639Z,5.68
2023-05-19T02:32:36.769Z,8.57
2023-05-19T02:35:38.866Z,5.72
2023-05-19T02:38:41.130Z,6.38
2023-05-19T02:41:43.231Z,5.90
2023-05-19T02:44:45.484Z,7.97
2023-05-19T02:47:47.586Z,6.68
2023-05-19T02:50:49.620Z,6.28
2023-05-19T02:53:51.537Z,7.93
2023-05-19T02:56:53.577Z,5.97
2023-05-19T02:59:55.629Z,6.17
2023-05-19T03:03:02.705Z,5.43
2023-05-19T03:06:08.762Z,6.95
2023-05-19T03:09:10.866Z,7.95
2023-05-19T03:12:13.044Z,6.97
2023-05-19T03:15:15.149Z,8.70
2023-05-19T03:18:17.181Z,7.80
2023-05-19T03:21:19.300Z,6.28
2023-05-19T03:24:21.316Z,5.75
2023-05-19T03:27:23.374Z,7.40
2023-05-19T03:30:25.335Z,8.32
2023-05-19T03:33:49.458Z,6.13
2023-05-19T03:36:51.611Z,5.85
2023-05-19T03:39:53.985Z,6.13
2023-05-19T03:42:56.799Z,10.00
2023-05-19T03:45:58.911Z,7.05
2023-05-19T03:49:19.502Z,6.18
2023-05-19T03:52:50.553Z,8.10
2023-05-19T03:56:02.941Z,7.60
2023-05-19T03:59:07.113Z,6.25
2023-05-19T04:02:09.159Z,6.93
2023-05-19T04:05:11.311Z,6.95
2023-05-19T04:08:13.279Z,6.38
2023-05-19T04:11:15.872Z,7.47
2023-05-19T04:14:17.912Z,7.38
2023-05-19T04:17:19.985Z,7.55
2023-05-19T04:20:23.310Z,6.40
2023-05-19T04:23:26.427Z,6.55
2023-05-19T04:26:30.849Z,6.57
2023-05-19T04:29:33.735Z,7.32
2023-05-19T04:32:37.819Z,5.60
2023-05-19T04:35:41.140Z,5.60
2023-05-19T04:38:45.954Z,7.95
2023-05-19T04:41:50.061Z,4.87
2023-05-19T04:44:52.141Z,7.47
2023-05-19T04:47:58.293Z,6.78
2023-05-19T04:51:02.056Z,5.47
2023-05-19T04:54:04.283Z,8.43
2023-05-19T04:57:06.706Z,5.23
2023-05-19T05:00:14.381Z,5.47
2023-05-19T05:03:31.080Z,5.78
2023-05-19T05:06:33.510Z,5.57
2023-05-19T05:09:35.894Z,6.97
2023-05-19T05:12:38.458Z,7.70
2023-05-19T05:15:41.037Z,10.23
2023-05-19T05:18:45.032Z,7.63
2023-05-19T05:21:47.825Z,6.13
2023-05-19T05:24:50.960Z,10.13
2023-05-19T05:27:53.930Z,6.40
2023-05-19T05:30:57.415Z,6.07
2023-05-19T05:34:00.114Z,8.55
2023-05-19T05:37:06.019Z,8.68
2023-05-19T05:40:10.159Z,7.22
2023-05-19T05:43:12.290Z,7.30
2023-05-19T05:46:21.079Z,7.75
2023-05-19T05:49:23.521Z,9.73
2023-05-19T05:52:30.368Z,7.45
2023-05-19T05:55:34.147Z,6.65
2023-05-19T05:58:37.774Z,6.10
2023-05-19T06:01:39.932Z,5.30
2023-05-19T06:04:44.143Z,7.05
2023-05-19T06:07:46.759Z,9.07
2023-05-19T06:10:54.125Z,6.10
2023-05-19T06:13:57.171Z,7.57
2023-05-19T06:17:19.157Z,10.33
2023-05-19T06:20:21.434Z,7.10
2023-05-19T06:23:23.909Z,9.98
2023-05-19T06:26:26.648Z,7.35
2023-05-19T06:29:29.260Z,10.20
2023-05-19T06:32:34.180Z,7.32
2023-05-19T06:35:38.383Z,8.32
2023-05-19T06:38:40.977Z,6.40
2023-05-19T06:41:43.726Z,7.13
2023-05-19T06:44:58.387Z,8.87
2023-05-19T06:48:02.239Z,7.82
2023-05-19T06:51:05.116Z,6.70
2023-05-19T06:54:11.119Z,8.07
2023-05-19T06:57:13.334Z,8.32
2023-05-19T07:00:18.813Z,8.30
2023-05-19T07:03:24.302Z,7.57
2023-05-19T07:06:26.767Z,6.32
2023-05-19T07:09:29.027Z,8.27
2023-05-19T07:12:32.351Z,8.10
2023-05-19T07:15:34.998Z,8.90
2023-05-19T07:18:37.217Z,7.73
2023-05-19T07:21:39.280Z,7.32
2023-05-19T07:24:41.420Z,7.03
2023-05-19T07:27:43.436Z,11.18
2023-05-19T07:30:45.438Z,9.10
2023-05-19T07:33:47.498Z,9.03
2023-05-19T07:36:49.544Z,6.60
2023-05-19T07:39:51.645Z,7.35
2023-05-19T07:42:53.754Z,7.85
2023-05-19T07:45:56.505Z,12.80
2023-05-19T07:48:58.669Z,7.40
2023-05-19T07:52:01.230Z,6.78
2023-05-19T07:55:03.304Z,8.90
2023-05-19T07:58:05.585Z,9.82
2023-05-19T08:01:07.684Z,9.47
2023-05-19T08:04:12.716Z,8.07
2023-05-19T08:07:15.273Z,8.13
2023-05-19T08:10:17.624Z,8.75
2023-05-19T08:13:19.832Z,8.35
2023-05-19T08:16:24.609Z,8.00
2023-05-19T08:19:27.052Z,10.27
2023-05-19T08:22:29.139Z,8.48
2023-05-19T08:25:31.401Z,8.02
2023-05-19T08:28:33.460Z,8.63
2023-05-19T08:31:35.566Z,9.37
2023-05-19T08:34:37.787Z,8.80
2023-05-19T08:37:39.901Z,10.75
2023-05-19T08:40:42.719Z,9.55
2023-05-19T08:43:45.475Z,8.00
2023-05-19T08:46:47.615Z,7.20
2023-05-19T08:49:53.349Z,8.90
2023-05-19T08:53:31.368Z,8.75
2023-05-19T08:56:35.095Z,7.68
2023-05-19T08:59:37.860Z,7.32
2023-05-19T09:02:50.557Z,8.23
2023-05-19T09:06:05.719Z,9.07
2023-05-19T09:09:08.646Z,8.35
2023-05-19T09:12:11.694Z,7.15
2023-05-19T09:15:18.838Z,8.05
2023-05-19T09:18:20.864Z,7.43
2023-05-19T09:21:33.215Z,10.60
2023-05-19T09:24:36.008Z,8.05
2023-05-19T09:27:38.156Z,9.65
2023-05-19T09:30:40.212Z,8.10
2023-05-19T09:33:45.615Z,14.40
2023-05-19T09:36:53.383Z,7.73
2023-05-19T09:39:55.963Z,7.05
2023-05-19T09:42:57.922Z,12.85
2023-05-19T09:46:07.577Z,7.95
2023-05-19T09:49:10.482Z,7.00
2023-05-19T09:52:16.349Z,7.30
2023-05-19T09:55:20.136Z,7.20
2023-05-19T09:58:22.593Z,6.85
2023-05-19T10:01:25.706Z,8.02
2023-05-19T10:04:29.990Z,9.07
2023-05-19T10:07:32.714Z,6.47
2023-05-19T10:10:35.127Z,7.22
2023-05-19T10:13:38.925Z,7.53
2023-05-19T10:16:41.824Z,8.13
2023-05-19T10:19:44.752Z,7.60
2023-05-19T10:22:47.070Z,8.63
2023-05-19T10:25:51.553Z,7.57
2023-05-19T10:28:53.862Z,7.53
2023-05-19T10:31:59.481Z,6.43
2023-05-19T10:35:23.095Z,5.93
2023-05-19T10:38:38.634Z,6.70
2023-05-19T10:42:07.238Z,5.90
2023-05-19T10:45:20.006Z,5.82
2023-05-19T10:48:23.146Z,6.22
2023-05-19T10:51:32.318Z,7.57
2023-05-19T10:54:46.859Z,8.23
2023-05-19T10:57:58.117Z,5.43
2023-05-19T11:01:06.995Z,5.85
2023-05-19T11:04:14.929Z,6.85
2023-05-19T11:07:21.844Z,5.57
2023-05-19T11:10:24.836Z,6.80
2023-05-19T11:16:32.419Z,5.07
2023-05-19T11:19:35.884Z,5.65
2023-05-19T11:22:38.905Z,5.33
2023-05-19T11:25:42.623Z,5.77
2023-05-19T11:28:45.514Z,5.50
2023-05-19T11:31:48.778Z,4.90
2023-05-19T11:34:51.490Z,5.50
2023-05-19T11:37:54.697Z,5.00
2023-05-19T11:40:57.193Z,5.77
2023-05-19T11:43:59.278Z,5.38
2023-05-19T11:47:01.368Z,4.65
2023-05-19T11:50:03.934Z,6.68
2023-05-19T11:53:07.014Z,4.67
2023-05-19T11:56:09.187Z,5.57
2023-05-19T11:59:11.369Z,5.93
2023-05-19T12:02:14.015Z,4.68
2023-05-19T12:05:24.238Z,6.53
2023-05-19T12:08:27.490Z,5.27
2023-05-19T12:11:29.628Z,4.97
2023-05-19T12:14:31.684Z,4.90
2023-05-19T12:17:33.833Z,5.40
2023-05-19T12:20:36.608Z,5.80
2023-05-19T12:23:39.013Z,5.47
2023-05-19T12:26:41.205Z,4.60
2023-05-19T12:29:43.244Z,5.20
2023-05-19T12:32:46.221Z,4.28
2023-05-19T12:35:50.059Z,5.25
2023-05-19T12:38:55.632Z,8.00
2023-05-19T12:42:24.323Z,5.90
2023-05-19T12:45:28.575Z,7.93
2023-05-19T12:48:30.962Z,5.80
2023-05-19T12:51:32.909Z,5.53
2023-05-19T12:54:35.013Z,5.37
2023-05-19T12:57:42.198Z,6.77
2023-05-19T13:00:47.547Z,6.85
2023-05-19T13:03:49.899Z,5.85
2023-05-19T13:06:55.872Z,4.45
2023-05-19T13:09:57.799Z,4.93
2023-05-19T13:13:00.439Z,4.80
2023-05-19T13:16:02.441Z,4.93
2023-05-19T13:19:06.334Z,7.97
2023-05-19T13:22:08.543Z,5.32
2023-05-19T13:25:11.053Z,5.20
2023-05-19T13:28:13.051Z,5.47
2023-05-19T13:31:15.196Z,5.57
2023-05-19T13:34:18.314Z,5.28
2023-05-19T13:37:20.475Z,5.07
2023-05-19T13:40:24.053Z,4.70
2023-05-19T13:43:26.231Z,5.83
2023-05-19T13:46:40.934Z,5.03
2023-05-19T13:49:46.461Z,5.97
2023-05-19T13:52:48.634Z,6.22
2023-05-19T13:55:52.991Z,6.60
2023-05-19T13:58:55.413Z,5.30
2023-05-19T14:01:57.715Z,6.95
2023-05-19T14:04:59.818Z,6.10
2023-05-19T14:08:03.658Z,6.57
2023-05-19T14:11:06.060Z,6.20
2023-05-19T14:14:09.393Z,6.27
2023-05-19T14:17:13.229Z,7.18
2023-05-19T14:20:15.420Z,8.93
2023-05-19T14:23:17.546Z,5.85
2023-05-19T14:26:19.888Z,5.27
2023-05-19T14:29:21.923Z,7.27
2023-05-19T14:32:23.979Z,8.45
2023-05-19T14:35:26.141Z,5.00
2023-05-19T14:38:29.406Z,6.40
2023-05-19T14:41:31.721Z,5.47
2023-05-19T14:44:33.743Z,5.73
2023-05-19T14:47:35.818Z,7.22
2023-05-19T14:50:38.434Z,5.25
2023-05-19T14:53:40.444Z,6.53
2023-05-19T14:56:42.484Z,7.27
2023-05-19T14:59:44.553Z,5.87
2023-05-19T15:02:46.631Z,7.88
2023-05-19T15:05:49.367Z,6.32
2023-05-19T15:08:51.547Z,7.45
2023-05-19T15:11:53.582Z,6.23
2023-05-19T15:14:56.230Z,5.33
2023-05-19T15:17:58.342Z,6.38
2023-05-19T15:21:00.348Z,6.15
2023-05-19T15:24:02.493Z,7.80
2023-05-19T15:27:05.001Z,6.27
2023-05-19T15:30:07.385Z,8.73
2023-05-19T15:33:09.736Z,5.57
2023-05-19T15:36:16.425Z,5.88
2023-05-19T15:39:18.648Z,5.40
2023-05-19T15:42:20.868Z,5.63
2023-05-19T15:45:22.837Z,6.67
2023-05-19T15:48:28.765Z,5.60
2023-05-19T15:51:31.647Z,5.15
2023-05-19T15:54:33.646Z,5.63
2023-05-19T15:57:35.652Z,6.73
2023-05-19T16:00:37.688Z,6.87
2023-05-19T16:03:39.815Z,6.93
2023-05-19T16:06:41.884Z,5.95
2023-05-19T16:09:44.066Z,6.30
2023-05-19T16:12:46.122Z,6.53
2023-05-19T16:15:48.688Z,5.30
2023-05-19T16:18:50.942Z,7.35
2023-05-19T16:21:52.964Z,6.70
2023-05-19T16:24:54.928Z,6.88
2023-05-19T16:27:57.351Z,6.37
2023-05-19T16:31:00.330Z,5.83
2023-05-19T16:34:02.390Z,5.40
2023-05-19T16:37:04.729Z,5.90
2023-05-19T16:40:07.550Z,5.03
2023-05-19T16:43:09.608Z,6.53
2023-05-19T16:46:12.354Z,5.57
2023-05-19T16:49:14.438Z,6.57
2023-05-19T16:52:16.460Z,6.13
2023-05-19T16:55:20.099Z,6.43
2023-05-19T16:58:22.234Z,5.67
2023-05-19T17:01:24.315Z,6.57
2023-05-19T17:04:28.163Z,9.05
2023-05-19T17:07:31.272Z,8.73
2023-05-19T17:10:33.383Z,6.45
2023-05-19T17:13:36.550Z,7.13
2023-05-19T17:16:38.852Z,8.67
2023-05-19T17:19:40.876Z,7.82
2023-05-19T17:22:42.985Z,7.45
2023-05-19T17:25:45.135Z,5.63
2023-05-19T17:28:47.240Z,7.07
2023-05-19T17:31:49.422Z,7.23
2023-05-19T17:34:51.608Z,7.40
2023-05-19T17:37:53.725Z,7.25
2023-05-19T17:41:02.578Z,7.47
2023-05-19T17:44:06.798Z,6.70
2023-05-19T17:47:08.865Z,5.77
2023-05-19T17:50:10.951Z,8.80
2023-05-19T17:53:13.154Z,7.13
2023-05-19T17:56:15.285Z,8.85
2023-05-19T17:59:17.627Z,7.97
2023-05-19T18:02:19.870Z,7.93
2023-05-19T18:05:22.246Z,10.23
2023-05-19T18:08:24.585Z,8.45
2023-05-19T18:11:26.902Z,10.35
2023-05-19T18:14:29.003Z,10.47
2023-05-19T18:17:31.197Z,9.13
2023-05-19T18:20:37.864Z,10.73
2023-05-19T18:23:41.504Z,7.95
2023-05-19T18:26:43.601Z,9.57
2023-05-19T18:29:45.628Z,9.33
2023-05-19T18:32:47.701Z,8.43
2023-05-19T18:35:49.825Z,9.10
2023-05-19T18:38:52.083Z,10.82
2023-05-19T18:41:54.101Z,8.55
2023-05-19T18:44:56.072Z,8.60
2023-05-19T18:47:58.145Z,13.20
2023-05-19T18:51:00.272Z,10.98
2023-05-19T18:54:02.284Z,10.18
2023-05-19T18:57:04.827Z,10.07
2023-05-19T19:00:07.682Z,10.30
2023-05-19T19:03:11.674Z,10.37
2023-05-19T19:06:13.842Z,8.63
2023-05-19T19:09:15.832Z,9.13
2023-05-19T19:12:19.061Z,10.20
2023-05-19T19:15:22.441Z,9.73
2023-05-19T19:18:26.064Z,10.77
2023-05-19T19:21:29.792Z,8.32
2023-05-19T19:24:32.199Z,11.05
2023-05-19T19:27:35.683Z,8.52
2023-05-19T19:30:37.786Z,8.13
2023-05-19T19:33:41.478Z,9.27
2023-05-19T19:36:43.937Z,8.57
2023-05-19T19:39:46.700Z,7.97
2023-05-19T19:42:48.754Z,10.30
2023-05-19T19:45:59.919Z,9.37
2023-05-19T19:49:02.370Z,9.67
2023-05-19T19:52:04.638Z,8.48
2023-05-19T19:55:07.121Z,8.38
2023-05-19T19:58:09.107Z,8.77
2023-05-19T20:01:11.337Z,8.30
2023-05-19T20:04:13.497Z,12.17
2023-05-19T20:07:19.510Z,9.70
2023-05-19T20:10:21.490Z,9.68
2023-05-19T20:13:23.507Z,8.75
2023-05-19T20:16:25.961Z,10.07
2023-05-19T20:19:28.115Z,10.60
2023-05-19T20:22:30.192Z,10.88
2023-05-19T20:25:32.972Z,8.30
2023-05-19T20:28:35.846Z,9.48
2023-05-19T20:31:37.976Z,10.63
2023-05-19T20:34:40.199Z,9.77
2023-05-19T20:37:42.264Z,10.00
2023-05-19T20:40:44.328Z,9.52
2023-05-19T20:43:46.463Z,9.73
2023-05-19T20:46:48.466Z,9.90
2023-05-19T20:49:50.604Z,10.80
2023-05-19T20:52:52.679Z,12.77
2023-05-19T20:55:54.683Z,9.32
2023-05-19T20:58:56.746Z,10.55
2023-05-19T21:01:58.783Z,11.10
2023-05-19T21:05:01.161Z,15.30
2023-05-19T21:08:03.335Z,12.52
2023-05-19T21:11:05.344Z,12.05
2023-05-19T21:14:08.439Z,10.32
2023-05-19T21:17:10.761Z,9.50
2023-05-19T21:20:12.893Z,8.70
2023-05-19T21:23:14.923Z,10.23
2023-05-19T21:26:17.254Z,11.00
2023-05-19T21:29:19.606Z,9.50
2023-05-19T21:32:21.806Z,10.20
2023-05-19T21:35:23.845Z,10.90
2023-05-19T21:38:26.639Z,9.63
2023-05-19T21:41:28.670Z,10.93
2023-05-19T21:44:31.995Z,9.13
2023-05-19T21:47:34.038Z,11.07
2023-05-19T21:50:39.505Z,11.93
2023-05-19T21:53:41.886Z,10.32
2023-05-19T21:56:43.921Z,10.68
2023-05-19T21:59:46.136Z,10.15
2023-05-19T22:02:48.213Z,9.07
2023-05-19T22:05:51.751Z,10.80
2023-05-19T22:08:53.870Z,7.93
2023-05-19T22:11:55.852Z,8.88
2023-05-19T22:14:57.822Z,11.20
2023-05-19T22:17:59.868Z,10.87
2023-05-19T22:21:02.044Z,13.50
2023-05-19T22:24:04.673Z,10.40
2023-05-19T22:27:09.850Z,12.05
2023-05-19T22:30:12.274Z,9.35
2023-05-19T22:33:14.738Z,10.43
2023-05-19T22:36:16.847Z,9.70
2023-05-19T22:39:18.890Z,13.88
2023-05-19T22:42:21.045Z,11.60
2023-05-19T22:45:22.995Z,10.45
2023-05-19T22:48:25.005Z,11.60
2023-05-19T22:51:27.041Z,10.47
2023-05-19T22:54:29.110Z,11.07
2023-05-19T22:57:31.640Z,13.68
2023-05-19T23:00:33.854Z,10.93
2023-05-19T23:03:36.191Z,10.17
2023-05-19T23:06:38.248Z,10.53
2023-05-19T23:09:40.213Z,11.77
2023-05-19T23:12:42.495Z,11.65
2023-05-19T23:15:44.468Z,11.15
2023-05-19T23:18:46.486Z,12.20
2023-05-19T23:21:49.266Z,10.00
2023-05-19T23:24:51.371Z,10.95
2023-05-19T23:27:53.470Z,10.88
2023-05-19T23:30:56.061Z,12.48
2023-05-19T23:33:58.374Z,11.67
2023-05-19T23:37:00.441Z,11.65
2023-05-19T23:40:02.455Z,11.60
2023-05-19T23:43:04.465Z,10.65
2023-05-19T23:46:06.627Z,13.18
2023-05-19T23:49:08.702Z,10.80
2023-05-19T23:52:11.207Z,12.25
2023-05-19T23:55:13.721Z,14.10
2023-05-19T23:58:16.038Z,11.45
